sensor_id;sensor_type;location;lat;lon;timestamp;P1;durP1;ratioP1;P2;durP2;ratioP2
52316;SDS011;38725;41.994;21.458;2022-07-22T00:01:33;9.82;;;6.10;;
52316;SDS011;38725;41.994;21.458;2022-07-22T00:03:59;14.82;;;6.78;;
52316;SDS011;38725;41.994;21.458;2022-07-22T00:06:26;17.02;;;5.40;;
52316;SDS011;38725;41.994;21.458;2022-07-22T00:08:52;9.88;;;6.18;;
52316;SDS011;38725;41.994;21.458;2022-07-22T00:11:19;13.38;;;5.38;;
52316;SDS011;38725;41.994;21.458;2022-07-22T00:13:45;10.32;;;5.60;;
52316;SDS011;38725;41.994;21.458;2022-07-22T00:16:11;9.43;;;5.20;;
52316;SDS011;38725;41.994;21.458;2022-07-22T00:18:37;13.07;;;6.13;;
52316;SDS011;38725;41.994;21.458;2022-07-22T00:21:04;10.55;;;5.25;;
52316;SDS011;38725;41.994;21.458;2022-07-22T00:23:30;15.02;;;6.03;;
52316;SDS011;38725;41.994;21.458;2022-07-22T00:25:56;10.13;;;5.97;;
52316;SDS011;38725;41.994;21.458;2022-07-22T00:28:22;12.82;;;5.35;;
52316;SDS011;38725;41.994;21.458;2022-07-22T00:30:48;12.70;;;5.68;;
52316;SDS011;38725;41.994;21.458;2022-07-22T00:33:15;13.45;;;5.35;;
52316;SDS011;38725;41.994;21.458;2022-07-22T00:35:41;11.07;;;5.90;;
52316;SDS011;38725;41.994;21.458;2022-07-22T00:38:07;8.75;;;5.07;;
52316;SDS011;38725;41.994;21.458;2022-07-22T00:40:33;11.60;;;5.30;;
52316;SDS011;38725;41.994;21.458;2022-07-22T00:42:59;8.52;;;5.60;;
52316;SDS011;38725;41.994;21.458;2022-07-22T00:45:26;14.88;;;5.50;;
52316;SDS011;38725;41.994;21.458;2022-07-22T00:47:52;10.82;;;5.22;;
52316;SDS011;38725;41.994;21.458;2022-07-22T00:50:18;9.38;;;5.28;;
52316;SDS011;38725;41.994;21.458;2022-07-22T00:52:46;14.43;;;5.97;;
52316;SDS011;38725;41.994;21.458;2022-07-22T00:55:12;9.75;;;5.45;;
52316;SDS011;38725;41.994;21.458;2022-07-22T00:57:38;10.98;;;5.30;;
52316;SDS011;38725;41.994;21.458;2022-07-22T01:00:07;14.23;;;5.32;;
52316;SDS011;38725;41.994;21.458;2022-07-22T01:02:34;11.15;;;5.30;;
52316;SDS011;38725;41.994;21.458;2022-07-22T01:05:00;12.05;;;5.43;;
52316;SDS011;38725;41.994;21.458;2022-07-22T01:07:26;14.43;;;6.55;;
52316;SDS011;38725;41.994;21.458;2022-07-22T01:09:53;10.05;;;4.75;;
52316;SDS011;38725;41.994;21.458;2022-07-22T01:12:19;9.88;;;5.22;;
52316;SDS011;38725;41.994;21.458;2022-07-22T01:14:45;10.70;;;5.28;;
52316;SDS011;38725;41.994;21.458;2022-07-22T01:17:11;11.45;;;5.28;;
52316;SDS011;38725;41.994;21.458;2022-07-22T01:19:37;13.88;;;5.15;;
52316;SDS011;38725;41.994;21.458;2022-07-22T01:22:04;8.55;;;4.97;;
52316;SDS011;38725;41.994;21.458;2022-07-22T01:24:30;17.52;;;5.28;;
52316;SDS011;38725;41.994;21.458;2022-07-22T01:26:57;8.15;;;5.40;;
52316;SDS011;38725;41.994;21.458;2022-07-22T01:29:23;12.63;;;5.60;;
52316;SDS011;38725;41.994;21.458;2022-07-22T01:31:49;10.15;;;5.60;;
52316;SDS011;38725;41.994;21.458;2022-07-22T01:34:16;12.52;;;5.10;;
52316;SDS011;38725;41.994;21.458;2022-07-22T01:36:42;9.65;;;5.45;;
52316;SDS011;38725;41.994;21.458;2022-07-22T01:39:08;11.32;;;5.50;;
52316;SDS011;38725;41.994;21.458;2022-07-22T01:41:34;13.25;;;5.47;;
52316;SDS011;38725;41.994;21.458;2022-07-22T01:44:00;10.82;;;5.00;;
52316;SDS011;38725;41.994;21.458;2022-07-22T01:46:27;10.60;;;5.22;;
52316;SDS011;38725;41.994;21.458;2022-07-22T01:48:53;10.18;;;5.28;;
52316;SDS011;38725;41.994;21.458;2022-07-22T01:51:19;12.65;;;5.40;;
52316;SDS011;38725;41.994;21.458;2022-07-22T01:53:45;11.75;;;5.22;;
52316;SDS011;38725;41.994;21.458;2022-07-22T01:56:11;13.68;;;5.03;;
52316;SDS011;38725;41.994;21.458;2022-07-22T01:58:38;10.73;;;4.57;;
52316;SDS011;38725;41.994;21.458;2022-07-22T02:01:04;11.75;;;5.30;;
52316;SDS011;38725;41.994;21.458;2022-07-22T02:03:30;12.05;;;4.97;;
52316;SDS011;38725;41.994;21.458;2022-07-22T02:05:56;13.32;;;4.40;;
52316;SDS011;38725;41.994;21.458;2022-07-22T02:08:22;10.75;;;5.10;;
52316;SDS011;38725;41.994;21.458;2022-07-22T02:10:49;9.90;;;4.80;;
52316;SDS011;38725;41.994;21.458;2022-07-22T02:13:15;13.30;;;4.90;;
52316;SDS011;38725;41.994;21.458;2022-07-22T02:15:41;11.15;;;5.00;;
52316;SDS011;38725;41.994;21.458;2022-07-22T02:18:14;8.63;;;4.80;;
52316;SDS011;38725;41.994;21.458;2022-07-22T02:20:41;9.32;;;4.88;;
52316;SDS011;38725;41.994;21.458;2022-07-22T02:23:07;10.65;;;5.13;;
52316;SDS011;38725;41.994;21.458;2022-07-22T02:25:33;9.70;;;5.28;;
52316;SDS011;38725;41.994;21.458;2022-07-22T02:28:00;11.13;;;4.60;;
52316;SDS011;38725;41.994;21.458;2022-07-22T02:30:27;8.30;;;5.03;;
52316;SDS011;38725;41.994;21.458;2022-07-22T02:32:53;14.93;;;5.47;;
52316;SDS011;38725;41.994;21.458;2022-07-22T02:35:19;9.30;;;5.60;;
52316;SDS011;38725;41.994;21.458;2022-07-22T02:37:46;14.88;;;4.72;;
52316;SDS011;38725;41.994;21.458;2022-07-22T02:40:12;11.98;;;5.22;;
52316;SDS011;38725;41.994;21.458;2022-07-22T02:42:38;12.30;;;5.07;;
52316;SDS011;38725;41.994;21.458;2022-07-22T02:45:04;11.35;;;5.57;;
52316;SDS011;38725;41.994;21.458;2022-07-22T02:47:30;10.27;;;5.18;;
52316;SDS011;38725;41.994;21.458;2022-07-22T02:49:57;12.45;;;5.20;;
52316;SDS011;38725;41.994;21.458;2022-07-22T02:52:23;11.23;;;5.47;;
52316;SDS011;38725;41.994;21.458;2022-07-22T02:54:49;9.68;;;5.68;;
52316;SDS011;38725;41.994;21.458;2022-07-22T02:57:15;11.52;;;4.93;;
52316;SDS011;38725;41.994;21.458;2022-07-22T02:59:41;12.07;;;5.38;;
52316;SDS011;38725;41.994;21.458;2022-07-22T03:02:07;11.68;;;5.30;;
52316;SDS011;38725;41.994;21.458;2022-07-22T03:04:33;12.82;;;5.65;;
52316;SDS011;38725;41.994;21.458;2022-07-22T03:07:00;13.25;;;5.40;;
52316;SDS011;38725;41.994;21.458;2022-07-22T03:09:26;9.30;;;5.18;;
52316;SDS011;38725;41.994;21.458;2022-07-22T03:11:52;15.93;;;5.38;;
52316;SDS011;38725;41.994;21.458;2022-07-22T03:14:18;10.40;;;5.43;;
52316;SDS011;38725;41.994;21.458;2022-07-22T03:16:44;9.95;;;5.15;;
52316;SDS011;38725;41.994;21.458;2022-07-22T03:19:11;9.02;;;5.60;;
52316;SDS011;38725;41.994;21.458;2022-07-22T03:21:37;14.40;;;6.00;;
52316;SDS011;38725;41.994;21.458;2022-07-22T03:24:03;9.55;;;5.53;;
52316;SDS011;38725;41.994;21.458;2022-07-22T03:26:30;8.50;;;5.10;;
52316;SDS011;38725;41.994;21.458;2022-07-22T03:28:56;9.38;;;5.68;;
52316;SDS011;38725;41.994;21.458;2022-07-22T03:31:22;9.27;;;5.60;;
52316;SDS011;38725;41.994;21.458;2022-07-22T03:33:48;17.63;;;5.25;;
52316;SDS011;38725;41.994;21.458;2022-07-22T03:36:14;11.60;;;5.97;;
52316;SDS011;38725;41.994;21.458;2022-07-22T03:38:40;10.15;;;5.40;;
52316;SDS011;38725;41.994;21.458;2022-07-22T03:41:07;8.65;;;5.72;;
52316;SDS011;38725;41.994;21.458;2022-07-22T03:43:34;6.97;;;5.05;;
52316;SDS011;38725;41.994;21.458;2022-07-22T03:46:00;9.85;;;6.10;;
52316;SDS011;38725;41.994;21.458;2022-07-22T03:48:26;12.98;;;5.55;;
52316;SDS011;38725;41.994;21.458;2022-07-22T03:50:52;12.65;;;4.90;;
52316;SDS011;38725;41.994;21.458;2022-07-22T03:53:18;9.70;;;5.05;;
52316;SDS011;38725;41.994;21.458;2022-07-22T03:55:45;10.32;;;5.03;;
52316;SDS011;38725;41.994;21.458;2022-07-22T03:58:12;7.95;;;5.28;;
52316;SDS011;38725;41.994;21.458;2022-07-22T04:00:38;13.35;;;5.45;;
52316;SDS011;38725;41.994;21.458;2022-07-22T04:03:04;8.90;;;4.95;;
52316;SDS011;38725;41.994;21.458;2022-07-22T04:05:30;7.20;;;4.72;;
52316;SDS011;38725;41.994;21.458;2022-07-22T04:07:56;10.20;;;5.25;;
52316;SDS011;38725;41.994;21.458;2022-07-22T04:10:22;12.32;;;4.97;;
52316;SDS011;38725;41.994;21.458;2022-07-22T04:12:48;11.57;;;5.32;;
52316;SDS011;38725;41.994;21.458;2022-07-22T04:15:15;10.25;;;5.07;;
52316;SDS011;38725;41.994;21.458;2022-07-22T04:17:41;14.90;;;5.75;;
52316;SDS011;38725;41.994;21.458;2022-07-22T04:20:07;8.00;;;5.22;;
52316;SDS011;38725;41.994;21.458;2022-07-22T04:22:33;13.65;;;5.28;;
52316;SDS011;38725;41.994;21.458;2022-07-22T04:25:00;10.60;;;5.43;;
52316;SDS011;38725;41.994;21.458;2022-07-22T04:27:26;11.43;;;4.95;;
52316;SDS011;38725;41.994;21.458;2022-07-22T04:29:52;10.68;;;5.22;;
52316;SDS011;38725;41.994;21.458;2022-07-22T04:32:18;10.68;;;5.45;;
52316;SDS011;38725;41.994;21.458;2022-07-22T04:34:44;11.07;;;5.10;;
52316;SDS011;38725;41.994;21.458;2022-07-22T04:37:11;17.90;;;5.55;;
52316;SDS011;38725;41.994;21.458;2022-07-22T04:39:38;14.63;;;5.20;;
52316;SDS011;38725;41.994;21.458;2022-07-22T04:42:04;12.45;;;4.35;;
52316;SDS011;38725;41.994;21.458;2022-07-22T04:44:30;10.10;;;4.50;;
52316;SDS011;38725;41.994;21.458;2022-07-22T04:46:57;8.23;;;4.50;;
52316;SDS011;38725;41.994;21.458;2022-07-22T04:49:32;12.25;;;4.28;;
52316;SDS011;38725;41.994;21.458;2022-07-22T04:51:58;12.03;;;4.43;;
52316;SDS011;38725;41.994;21.458;2022-07-22T04:54:24;7.63;;;4.45;;
52316;SDS011;38725;41.994;21.458;2022-07-22T04:56:50;11.98;;;4.78;;
52316;SDS011;38725;41.994;21.458;2022-07-22T04:59:16;9.50;;;5.25;;
52316;SDS011;38725;41.994;21.458;2022-07-22T05:01:42;9.88;;;5.03;;
52316;SDS011;38725;41.994;21.458;2022-07-22T05:04:08;17.15;;;5.13;;
52316;SDS011;38725;41.994;21.458;2022-07-22T05:06:35;12.30;;;4.82;;
52316;SDS011;38725;41.994;21.458;2022-07-22T05:09:01;22.42;;;5.13;;
52316;SDS011;38725;41.994;21.458;2022-07-22T05:11:27;13.98;;;4.85;;
52316;SDS011;38725;41.994;21.458;2022-07-22T05:13:53;10.48;;;4.60;;
52316;SDS011;38725;41.994;21.458;2022-07-22T05:16:19;9.10;;;4.47;;
52316;SDS011;38725;41.994;21.458;2022-07-22T05:18:45;7.97;;;4.50;;
52316;SDS011;38725;41.994;21.458;2022-07-22T05:21:12;14.45;;;4.80;;
52316;SDS011;38725;41.994;21.458;2022-07-22T05:23:38;11.30;;;4.25;;
52316;SDS011;38725;41.994;21.458;2022-07-22T05:26:04;11.68;;;5.05;;
52316;SDS011;38725;41.994;21.458;2022-07-22T05:28:30;9.10;;;4.57;;
52316;SDS011;38725;41.994;21.458;2022-07-22T05:30:58;8.30;;;4.25;;
52316;SDS011;38725;41.994;21.458;2022-07-22T05:33:24;9.00;;;4.40;;
52316;SDS011;38725;41.994;21.458;2022-07-22T05:35:51;7.65;;;4.43;;
52316;SDS011;38725;41.994;21.458;2022-07-22T05:38:17;9.77;;;5.13;;
52316;SDS011;38725;41.994;21.458;2022-07-22T05:40:43;8.63;;;4.60;;
52316;SDS011;38725;41.994;21.458;2022-07-22T05:43:10;18.08;;;5.13;;
52316;SDS011;38725;41.994;21.458;2022-07-22T05:45:36;9.18;;;4.82;;
52316;SDS011;38725;41.994;21.458;2022-07-22T05:48:02;10.82;;;4.97;;
52316;SDS011;38725;41.994;21.458;2022-07-22T05:50:28;13.90;;;6.03;;
52316;SDS011;38725;41.994;21.458;2022-07-22T05:52:54;13.82;;;5.40;;
52316;SDS011;38725;41.994;21.458;2022-07-22T05:55:20;12.65;;;4.88;;
52316;SDS011;38725;41.994;21.458;2022-07-22T05:57:46;17.45;;;5.30;;
52316;SDS011;38725;41.994;21.458;2022-07-22T06:00:13;15.15;;;5.00;;
52316;SDS011;38725;41.994;21.458;2022-07-22T06:02:39;11.90;;;5.18;;
52316;SDS011;38725;41.994;21.458;2022-07-22T06:05:06;13.88;;;5.72;;
52316;SDS011;38725;41.994;21.458;2022-07-22T06:07:32;14.63;;;5.57;;
52316;SDS011;38725;41.994;21.458;2022-07-22T06:09:58;13.98;;;5.35;;
52316;SDS011;38725;41.994;21.458;2022-07-22T06:12:24;16.48;;;5.20;;
52316;SDS011;38725;41.994;21.458;2022-07-22T06:14:50;21.00;;;5.20;;
52316;SDS011;38725;41.994;21.458;2022-07-22T06:17:16;13.85;;;6.10;;
52316;SDS011;38725;41.994;21.458;2022-07-22T06:19:43;13.52;;;5.97;;
52316;SDS011;38725;41.994;21.458;2022-07-22T06:22:09;11.95;;;5.25;;
52316;SDS011;38725;41.994;21.458;2022-07-22T06:24:35;15.43;;;5.32;;
52316;SDS011;38725;41.994;21.458;2022-07-22T06:27:01;13.85;;;5.10;;
52316;SDS011;38725;41.994;21.458;2022-07-22T06:29:28;18.48;;;5.50;;
52316;SDS011;38725;41.994;21.458;2022-07-22T06:31:54;21.35;;;5.25;;
52316;SDS011;38725;41.994;21.458;2022-07-22T06:34:20;18.23;;;5.38;;
52316;SDS011;38725;41.994;21.458;2022-07-22T06:36:46;10.07;;;5.18;;
52316;SDS011;38725;41.994;21.458;2022-07-22T06:39:12;13.52;;;5.72;;
52316;SDS011;38725;41.994;21.458;2022-07-22T06:41:39;11.50;;;5.28;;
52316;SDS011;38725;41.994;21.458;2022-07-22T06:44:06;12.75;;;5.40;;
52316;SDS011;38725;41.994;21.458;2022-07-22T06:46:32;13.00;;;5.40;;
52316;SDS011;38725;41.994;21.458;2022-07-22T06:48:58;13.32;;;5.63;;
52316;SDS011;38725;41.994;21.458;2022-07-22T06:51:24;17.08;;;5.75;;
52316;SDS011;38725;41.994;21.458;2022-07-22T06:53:51;13.88;;;4.70;;
52316;SDS011;38725;41.994;21.458;2022-07-22T06:56:17;14.80;;;5.20;;
52316;SDS011;38725;41.994;21.458;2022-07-22T06:58:43;11.68;;;5.45;;
52316;SDS011;38725;41.994;21.458;2022-07-22T07:01:09;18.75;;;4.97;;
52316;SDS011;38725;41.994;21.458;2022-07-22T07:03:36;9.15;;;5.43;;
52316;SDS011;38725;41.994;21.458;2022-07-22T07:06:03;10.82;;;4.65;;
52316;SDS011;38725;41.994;21.458;2022-07-22T07:08:29;15.57;;;4.85;;
52316;SDS011;38725;41.994;21.458;2022-07-22T07:10:55;12.80;;;5.03;;
52316;SDS011;38725;41.994;21.458;2022-07-22T07:13:21;8.98;;;4.93;;
52316;SDS011;38725;41.994;21.458;2022-07-22T07:15:48;12.85;;;5.03;;
52316;SDS011;38725;41.994;21.458;2022-07-22T07:18:14;8.85;;;4.97;;
52316;SDS011;38725;41.994;21.458;2022-07-22T07:20:40;9.10;;;4.40;;
52316;SDS011;38725;41.994;21.458;2022-07-22T07:23:06;11.10;;;4.85;;
52316;SDS011;38725;41.994;21.458;2022-07-22T07:25:33;9.93;;;4.80;;
52316;SDS011;38725;41.994;21.458;2022-07-22T07:27:59;8.15;;;4.63;;
52316;SDS011;38725;41.994;21.458;2022-07-22T07:30:25;10.82;;;4.70;;
52316;SDS011;38725;41.994;21.458;2022-07-22T07:32:51;10.48;;;4.95;;
52316;SDS011;38725;41.994;21.458;2022-07-22T07:35:17;13.07;;;4.63;;
52316;SDS011;38725;41.994;21.458;2022-07-22T07:37:43;12.27;;;4.80;;
52316;SDS011;38725;41.994;21.458;2022-07-22T07:40:09;11.23;;;5.00;;
52316;SDS011;38725;41.994;21.458;2022-07-22T07:42:36;8.95;;;4.60;;
52316;SDS011;38725;41.994;21.458;2022-07-22T07:45:02;14.82;;;4.40;;
52316;SDS011;38725;41.994;21.458;2022-07-22T07:47:29;12.82;;;4.72;;
52316;SDS011;38725;41.994;21.458;2022-07-22T07:49:55;9.07;;;4.05;;
52316;SDS011;38725;41.994;21.458;2022-07-22T07:52:22;11.98;;;4.00;;
52316;SDS011;38725;41.994;21.458;2022-07-22T07:54:49;9.73;;;4.50;;
52316;SDS011;38725;41.994;21.458;2022-07-22T07:57:15;17.27;;;4.65;;
52316;SDS011;38725;41.994;21.458;2022-07-22T07:59:41;13.13;;;4.85;;
52316;SDS011;38725;41.994;21.458;2022-07-22T08:02:08;11.38;;;4.50;;
52316;SDS011;38725;41.994;21.458;2022-07-22T08:04:34;9.82;;;4.40;;
52316;SDS011;38725;41.994;21.458;2022-07-22T08:07:01;11.75;;;4.65;;
52316;SDS011;38725;41.994;21.458;2022-07-22T08:09:27;10.00;;;4.30;;
52316;SDS011;38725;41.994;21.458;2022-07-22T08:11:53;14.43;;;4.47;;
52316;SDS011;38725;41.994;21.458;2022-07-22T08:14:20;8.65;;;4.45;;
52316;SDS011;38725;41.994;21.458;2022-07-22T08:16:46;9.85;;;4.10;;
52316;SDS011;38725;41.994;21.458;2022-07-22T08:19:12;10.75;;;4.63;;
52316;SDS011;38725;41.994;21.458;2022-07-22T08:21:38;11.90;;;4.53;;
52316;SDS011;38725;41.994;21.458;2022-07-22T08:24:07;11.48;;;4.20;;
52316;SDS011;38725;41.994;21.458;2022-07-22T08:26:34;19.05;;;4.85;;
52316;SDS011;38725;41.994;21.458;2022-07-22T08:29:00;14.82;;;3.72;;
52316;SDS011;38725;41.994;21.458;2022-07-22T08:31:29;10.10;;;4.20;;
52316;SDS011;38725;41.994;21.458;2022-07-22T08:34:00;12.88;;;4.70;;
52316;SDS011;38725;41.994;21.458;2022-07-22T08:36:26;11.25;;;4.47;;
52316;SDS011;38725;41.994;21.458;2022-07-22T08:38:52;8.40;;;3.85;;
52316;SDS011;38725;41.994;21.458;2022-07-22T08:41:18;17.17;;;4.10;;
52316;SDS011;38725;41.994;21.458;2022-07-22T08:43:47;30.17;;;5.10;;
52316;SDS011;38725;41.994;21.458;2022-07-22T08:46:13;12.80;;;5.05;;
52316;SDS011;38725;41.994;21.458;2022-07-22T08:48:39;6.70;;;3.58;;
52316;SDS011;38725;41.994;21.458;2022-07-22T08:51:06;11.13;;;3.95;;
52316;SDS011;38725;41.994;21.458;2022-07-22T08:53:32;9.85;;;3.78;;
52316;SDS011;38725;41.994;21.458;2022-07-22T08:55:58;9.05;;;3.88;;
52316;SDS011;38725;41.994;21.458;2022-07-22T08:58:25;11.30;;;3.45;;
52316;SDS011;38725;41.994;21.458;2022-07-22T09:01:07;7.30;;;3.78;;
52316;SDS011;38725;41.994;21.458;2022-07-22T09:03:35;7.65;;;3.85;;
52316;SDS011;38725;41.994;21.458;2022-07-22T09:06:08;14.35;;;3.80;;
52316;SDS011;38725;41.994;21.458;2022-07-22T09:08:49;6.32;;;3.55;;
52316;SDS011;38725;41.994;21.458;2022-07-22T09:11:18;10.93;;;3.67;;
52316;SDS011;38725;41.994;21.458;2022-07-22T09:13:45;6.20;;;3.40;;
52316;SDS011;38725;41.994;21.458;2022-07-22T09:16:12;6.30;;;3.00;;
52316;SDS011;38725;41.994;21.458;2022-07-22T09:18:48;9.90;;;3.55;;
52316;SDS011;38725;41.994;21.458;2022-07-22T09:21:15;14.20;;;4.53;;
52316;SDS011;38725;41.994;21.458;2022-07-22T09:23:41;6.65;;;2.75;;
52316;SDS011;38725;41.994;21.458;2022-07-22T09:26:08;13.30;;;4.30;;
52316;SDS011;38725;41.994;21.458;2022-07-22T09:28:34;14.70;;;3.33;;
52316;SDS011;38725;41.994;21.458;2022-07-22T09:31:03;9.43;;;4.18;;
52316;SDS011;38725;41.994;21.458;2022-07-22T09:33:29;8.98;;;4.13;;
52316;SDS011;38725;41.994;21.458;2022-07-22T09:36:01;9.20;;;4.13;;
52316;SDS011;38725;41.994;21.458;2022-07-22T09:38:28;7.65;;;3.70;;
52316;SDS011;38725;41.994;21.458;2022-07-22T09:40:54;10.90;;;3.67;;
52316;SDS011;38725;41.994;21.458;2022-07-22T09:43:20;15.20;;;4.05;;
52316;SDS011;38725;41.994;21.458;2022-07-22T09:45:51;9.63;;;4.38;;
52316;SDS011;38725;41.994;21.458;2022-07-22T09:48:19;12.98;;;3.72;;
52316;SDS011;38725;41.994;21.458;2022-07-22T09:50:47;9.18;;;3.80;;
52316;SDS011;38725;41.994;21.458;2022-07-22T09:53:14;7.25;;;3.55;;
52316;SDS011;38725;41.994;21.458;2022-07-22T09:55:40;11.15;;;3.80;;
52316;SDS011;38725;41.994;21.458;2022-07-22T09:58:07;6.45;;;3.65;;
52316;SDS011;38725;41.994;21.458;2022-07-22T10:00:33;6.47;;;2.83;;
52316;SDS011;38725;41.994;21.458;2022-07-22T10:03:00;6.75;;;2.95;;
52316;SDS011;38725;41.994;21.458;2022-07-22T10:05:28;6.55;;;2.88;;
52316;SDS011;38725;41.994;21.458;2022-07-22T10:07:55;8.20;;;2.80;;
52316;SDS011;38725;41.994;21.458;2022-07-22T10:10:22;8.82;;;3.20;;
52316;SDS011;38725;41.994;21.458;2022-07-22T10:12:49;6.80;;;3.03;;
52316;SDS011;38725;41.994;21.458;2022-07-22T10:15:16;11.75;;;3.50;;
52316;SDS011;38725;41.994;21.458;2022-07-22T10:17:46;10.90;;;3.33;;
52316;SDS011;38725;41.994;21.458;2022-07-22T10:20:15;7.70;;;3.13;;
52316;SDS011;38725;41.994;21.458;2022-07-22T10:25:11;10.60;;;3.13;;
52316;SDS011;38725;41.994;21.458;2022-07-22T10:27:57;6.25;;;3.47;;
52316;SDS011;38725;41.994;21.458;2022-07-22T10:30:28;5.60;;;3.00;;
52316;SDS011;38725;41.994;21.458;2022-07-22T10:33:28;8.88;;;3.20;;
52316;SDS011;38725;41.994;21.458;2022-07-22T10:35:58;9.27;;;3.80;;
52316;SDS011;38725;41.994;21.458;2022-07-22T10:38:25;6.57;;;3.08;;
52316;SDS011;38725;41.994;21.458;2022-07-22T10:40:53;9.40;;;3.80;;
52316;SDS011;38725;41.994;21.458;2022-07-22T10:43:23;4.57;;;2.70;;
52316;SDS011;38725;41.994;21.458;2022-07-22T10:45:51;8.27;;;2.72;;
52316;SDS011;38725;41.994;21.458;2022-07-22T10:49:00;5.57;;;2.92;;
52316;SDS011;38725;41.994;21.458;2022-07-22T10:51:08;8.70;;;2.92;;
52316;SDS011;38725;41.994;21.458;2022-07-22T10:53:42;6.53;;;2.67;;
52316;SDS011;38725;41.994;21.458;2022-07-22T10:56:16;3.25;;;2.47;;
52316;SDS011;38725;41.994;21.458;2022-07-22T10:58:46;4.88;;;2.67;;
52316;SDS011;38725;41.994;21.458;2022-07-22T11:01:14;8.18;;;2.78;;
52316;SDS011;38725;41.994;21.458;2022-07-22T11:03:41;7.85;;;2.80;;
52316;SDS011;38725;41.994;21.458;2022-07-22T11:06:27;8.75;;;3.55;;
52316;SDS011;38725;41.994;21.458;2022-07-22T11:09:04;9.07;;;2.90;;
52316;SDS011;38725;41.994;21.458;2022-07-22T11:11:33;4.90;;;2.90;;
52316;SDS011;38725;41.994;21.458;2022-07-22T11:13:59;5.18;;;2.70;;
52316;SDS011;38725;41.994;21.458;2022-07-22T11:16:26;7.97;;;2.85;;
52316;SDS011;38725;41.994;21.458;2022-07-22T11:18:57;7.75;;;2.95;;
52316;SDS011;38725;41.994;21.458;2022-07-22T11:21:27;8.05;;;3.13;;
52316;SDS011;38725;41.994;21.458;2022-07-22T11:23:55;6.75;;;3.28;;
52316;SDS011;38725;41.994;21.458;2022-07-22T11:26:26;5.00;;;2.42;;
52316;SDS011;38725;41.994;21.458;2022-07-22T11:28:57;5.90;;;2.70;;
52316;SDS011;38725;41.994;21.458;2022-07-22T11:31:25;6.65;;;3.20;;
52316;SDS011;38725;41.994;21.458;2022-07-22T11:33:51;7.57;;;3.10;;
52316;SDS011;38725;41.994;21.458;2022-07-22T11:36:17;12.18;;;3.40;;
52316;SDS011;38725;41.994;21.458;2022-07-22T11:38:50;5.63;;;3.08;;
52316;SDS011;38725;41.994;21.458;2022-07-22T11:41:17;9.93;;;3.50;;
52316;SDS011;38725;41.994;21.458;2022-07-22T11:43:45;7.35;;;3.05;;
52316;SDS011;38725;41.994;21.458;2022-07-22T11:46:11;5.82;;;3.35;;
52316;SDS011;38725;41.994;21.458;2022-07-22T11:48:38;5.88;;;3.22;;
52316;SDS011;38725;41.994;21.458;2022-07-22T11:51:05;9.15;;;3.25;;
52316;SDS011;38725;41.994;21.458;2022-07-22T11:53:32;6.70;;;3.40;;
52316;SDS011;38725;41.994;21.458;2022-07-22T11:55:59;18.20;;;4.30;;
52316;SDS011;38725;41.994;21.458;2022-07-22T11:58:35;9.65;;;3.60;;
52316;SDS011;38725;41.994;21.458;2022-07-22T12:01:01;13.65;;;3.65;;
52316;SDS011;38725;41.994;21.458;2022-07-22T12:03:29;7.53;;;4.15;;
52316;SDS011;38725;41.994;21.458;2022-07-22T12:05:55;5.80;;;3.38;;
52316;SDS011;38725;41.994;21.458;2022-07-22T12:08:21;5.43;;;3.08;;
52316;SDS011;38725;41.994;21.458;2022-07-22T12:10:47;10.98;;;4.10;;
52316;SDS011;38725;41.994;21.458;2022-07-22T12:13:14;33.83;;;5.65;;
52316;SDS011;38725;41.994;21.458;2022-07-22T12:15:40;9.68;;;4.78;;
52316;SDS011;38725;41.994;21.458;2022-07-22T12:18:17;10.90;;;4.50;;
52316;SDS011;38725;41.994;21.458;2022-07-22T12:20:45;10.02;;;3.45;;
52316;SDS011;38725;41.994;21.458;2022-07-22T12:23:11;9.90;;;4.07;;
52316;SDS011;38725;41.994;21.458;2022-07-22T12:25:57;9.40;;;3.30;;
52316;SDS011;38725;41.994;21.458;2022-07-22T12:28:24;15.25;;;4.20;;
52316;SDS011;38725;41.994;21.458;2022-07-22T12:30:51;7.80;;;3.33;;
52316;SDS011;38725;41.994;21.458;2022-07-22T12:33:18;11.35;;;3.95;;
52316;SDS011;38725;41.994;21.458;2022-07-22T12:35:57;9.63;;;3.53;;
52316;SDS011;38725;41.994;21.458;2022-07-22T12:38:23;10.35;;;3.72;;
52316;SDS011;38725;41.994;21.458;2022-07-22T12:40:50;7.65;;;3.17;;
52316;SDS011;38725;41.994;21.458;2022-07-22T12:43:16;11.48;;;3.72;;
52316;SDS011;38725;41.994;21.458;2022-07-22T12:45:42;5.65;;;3.53;;
52316;SDS011;38725;41.994;21.458;2022-07-22T12:48:09;13.52;;;4.32;;
52316;SDS011;38725;41.994;21.458;2022-07-22T12:50:42;10.25;;;3.83;;
52316;SDS011;38725;41.994;21.458;2022-07-22T12:53:12;21.35;;;4.40;;
52316;SDS011;38725;41.994;21.458;2022-07-22T12:55:42;8.55;;;3.58;;
52316;SDS011;38725;41.994;21.458;2022-07-22T12:58:08;6.78;;;3.70;;
52316;SDS011;38725;41.994;21.458;2022-07-22T13:00:35;11.50;;;3.95;;
52316;SDS011;38725;41.994;21.458;2022-07-22T13:03:02;8.45;;;3.50;;
52316;SDS011;38725;41.994;21.458;2022-07-22T13:05:28;10.38;;;3.72;;
52316;SDS011;38725;41.994;21.458;2022-07-22T13:07:54;11.75;;;4.10;;
52316;SDS011;38725;41.994;21.458;2022-07-22T13:10:21;8.52;;;3.50;;
52316;SDS011;38725;41.994;21.458;2022-07-22T13:12:48;6.05;;;3.38;;
52316;SDS011;38725;41.994;21.458;2022-07-22T13:15:14;5.90;;;3.72;;
52316;SDS011;38725;41.994;21.458;2022-07-22T13:17:41;7.40;;;4.50;;
52316;SDS011;38725;41.994;21.458;2022-07-22T13:20:08;10.07;;;3.88;;
52316;SDS011;38725;41.994;21.458;2022-07-22T13:22:34;9.70;;;4.22;;
52316;SDS011;38725;41.994;21.458;2022-07-22T13:25:01;14.38;;;3.50;;
52316;SDS011;38725;41.994;21.458;2022-07-22T13:27:29;6.95;;;3.53;;
52316;SDS011;38725;41.994;21.458;2022-07-22T13:29:58;12.18;;;3.95;;
52316;SDS011;38725;41.994;21.458;2022-07-22T13:32:24;12.20;;;3.75;;
52316;SDS011;38725;41.994;21.458;2022-07-22T13:34:51;12.20;;;3.47;;
52316;SDS011;38725;41.994;21.458;2022-07-22T13:37:17;5.10;;;3.10;;
52316;SDS011;38725;41.994;21.458;2022-07-22T13:39:43;7.50;;;3.05;;
52316;SDS011;38725;41.994;21.458;2022-07-22T13:42:12;8.45;;;3.83;;
52316;SDS011;38725;41.994;21.458;2022-07-22T13:44:38;4.22;;;2.80;;
52316;SDS011;38725;41.994;21.458;2022-07-22T13:47:04;24.13;;;4.60;;
52316;SDS011;38725;41.994;21.458;2022-07-22T13:49:30;10.82;;;3.42;;
52316;SDS011;38725;41.994;21.458;2022-07-22T13:51:57;6.65;;;2.90;;
52316;SDS011;38725;41.994;21.458;2022-07-22T13:54:23;7.35;;;3.70;;
52316;SDS011;38725;41.994;21.458;2022-07-22T13:56:49;7.88;;;3.63;;
52316;SDS011;38725;41.994;21.458;2022-07-22T13:59:15;11.30;;;4.00;;
52316;SDS011;38725;41.994;21.458;2022-07-22T14:01:42;8.13;;;3.05;;
52316;SDS011;38725;41.994;21.458;2022-07-22T14:04:08;6.95;;;2.90;;
52316;SDS011;38725;41.994;21.458;2022-07-22T14:06:35;9.35;;;3.28;;
52316;SDS011;38725;41.994;21.458;2022-07-22T14:09:01;7.78;;;3.35;;
52316;SDS011;38725;41.994;21.458;2022-07-22T14:11:27;8.07;;;3.15;;
52316;SDS011;38725;41.994;21.458;2022-07-22T14:13:54;6.85;;;3.08;;
52316;SDS011;38725;41.994;21.458;2022-07-22T14:16:27;9.70;;;3.05;;
52316;SDS011;38725;41.994;21.458;2022-07-22T14:19:02;5.40;;;2.90;;
52316;SDS011;38725;41.994;21.458;2022-07-22T14:21:28;6.43;;;3.67;;
52316;SDS011;38725;41.994;21.458;2022-07-22T14:23:55;8.40;;;3.38;;
52316;SDS011;38725;41.994;21.458;2022-07-22T14:26:21;8.70;;;3.00;;
52316;SDS011;38725;41.994;21.458;2022-07-22T14:28:47;6.05;;;2.80;;
52316;SDS011;38725;41.994;21.458;2022-07-22T14:31:13;16.48;;;3.42;;